Time;durP1;ratioP1;P1;durP2;ratioP2;P2;SDS_P1;SDS_P2;PMS_P1;PMS_P2;Temp;Humidity;BMP_temperature;BMP_pressure;BME280_temperature;BME280_humidity;BME280_pressure;Samples;Min_cycle;Max_cycle;Signal;HPM_P1;HPM_P2
2023/02/10 00:01:35;;;;;;;9.70;2.23;;;5.20;99.90;;;;;;4928843;29;20328;-81
2023/02/10 00:04:02;;;;;;;14.03;2.87;;;5.20;99.90;;;;;;4928562;29;20230;-81
2023/02/10 00:06:29;;;;;;;11.93;2.80;;;5.10;99.90;;;;;;4927957;29;20281;-81
2023/02/10 00:08:59;;;;;;;13.30;3.03;;;5.10;99.90;;;;;;4928608;29;20206;-80
2023/02/10 00:14:08;;;;;;;12.07;2.70;;;5.10;99.90;;;;;;4928667;29;20530;-80
2023/02/10 00:16:34;;;;;;;12.87;2.63;;;5.10;99.90;;;;;;4928326;29;20520;-79
2023/02/10 00:19:01;;;;;;;10.50;2.63;;;5.10;99.90;;;;;;4928684;29;20602;-79
2023/02/10 00:21:28;;;;;;;7.90;2.50;;;5.00;99.90;;;;;;4927616;29;20198;-80
2023/02/10 00:23:56;;;;;;;16.13;3.70;;;5.00;99.90;;;;;;4928771;29;20261;-80
2023/02/10 00:26:23;;;;;;;14.47;3.67;;;4.90;99.90;;;;;;4928223;29;20212;-82
2023/02/10 00:28:51;;;;;;;11.57;3.70;;;5.00;99.90;;;;;;4931690;29;20649;-81
2023/02/10 00:31:19;;;;;;;13.47;4.87;;;5.00;99.90;;;;;;4947120;29;20225;-79
2023/02/10 00:33:46;;;;;;;13.97;3.97;;;4.90;99.90;;;;;;4944094;29;20198;-81
2023/02/10 00:36:14;;;;;;;25.77;5.97;;;5.00;99.90;;;;;;4927748;29;20206;-81
2023/02/10 00:38:42;;;;;;;17.03;4.90;;;5.00;99.90;;;;;;4927428;29;20294;-80
2023/02/10 00:41:12;;;;;;;14.53;3.87;;;5.00;99.90;;;;;;4934644;29;20205;-80
2023/02/10 00:43:39;;;;;;;12.67;3.83;;;4.90;99.90;;;;;;4946351;28;20237;-80
2023/02/10 00:46:07;;;;;;;14.37;3.93;;;4.90;99.90;;;;;;4947006;29;20212;-79
2023/02/10 00:48:35;;;;;;;18.73;3.60;;;4.90;99.90;;;;;;4945707;29;20296;-77
2023/02/10 00:51:03;;;;;;;11.03;3.63;;;4.90;99.90;;;;;;4947116;28;20343;-79
2023/02/10 00:53:30;;;;;;;14.30;3.50;;;4.80;99.90;;;;;;4941233;29;20277;-80
2023/02/10 00:55:59;;;;;;;12.10;3.50;;;4.80;99.90;;;;;;4927536;29;20216;-78
2023/02/10 00:58:28;;;;;;;12.87;4.10;;;4.70;99.90;;;;;;4927827;29;20896;-79
2023/02/10 01:00:55;;;;;;;11.80;3.10;;;4.70;99.90;;;;;;4928447;29;20210;-77
2023/02/10 01:03:23;;;;;;;13.53;3.73;;;4.70;99.90;;;;;;4927930;29;20228;-78
2023/02/10 01:05:50;;;;;;;8.40;3.13;;;4.60;99.90;;;;;;4927696;29;20298;-79
2023/02/10 01:08:18;;;;;;;9.17;3.47;;;4.60;99.90;;;;;;4926112;29;20198;-77
2023/02/10 01:10:45;;;;;;;11.90;3.97;;;4.60;99.90;;;;;;4925516;29;20202;-77
2023/02/10 01:13:13;;;;;;;10.20;3.60;;;4.60;99.90;;;;;;4926329;29;20216;-78
2023/02/10 01:15:44;;;;;;;12.73;4.27;;;4.60;99.90;;;;;;4926823;29;20236;-78
2023/02/10 01:18:11;;;;;;;6.23;2.90;;;4.60;99.90;;;;;;4926559;29;20202;-78
2023/02/10 01:20:40;;;;;;;8.43;3.10;;;4.60;99.90;;;;;;4926147;29;20206;-78
2023/02/10 01:23:07;;;;;;;12.90;3.87;;;4.70;99.90;;;;;;4926784;29;20209;-78
2023/02/10 01:25:34;;;;;;;18.90;3.50;;;4.70;99.90;;;;;;4926584;29;20230;-78
2023/02/10 01:28:01;;;;;;;13.10;3.17;;;4.80;99.90;;;;;;4926581;29;20201;-76
2023/02/10 01:30:28;;;;;;;11.77;2.90;;;4.80;99.90;;;;;;4926391;29;20221;-76
2023/02/10 01:32:57;;;;;;;11.93;2.90;;;4.90;99.90;;;;;;4926343;29;20721;-79
2023/02/10 01:35:24;;;;;;;14.40;2.90;;;4.90;99.90;;;;;;4927190;29;20217;-76
2023/02/10 01:37:51;;;;;;;9.43;2.63;;;4.90;99.90;;;;;;4926600;29;20208;-78
2023/02/10 01:40:18;;;;;;;14.00;2.90;;;4.90;99.90;;;;;;4926902;29;20531;-78
2023/02/10 01:42:46;;;;;;;8.00;2.60;;;5.00;99.90;;;;;;4926432;29;20234;-77
2023/02/10 01:45:16;;;;;;;10.70;2.90;;;5.00;99.90;;;;;;4926621;29;20236;-78
2023/02/10 01:47:44;;;;;;;11.33;2.83;;;5.00;99.90;;;;;;4926993;29;20216;-77
2023/02/10 01:50:13;;;;;;;16.67;4.33;;;5.00;99.90;;;;;;4926229;29;20264;-78
2023/02/10 01:52:42;;;;;;;10.90;3.40;;;5.00;99.90;;;;;;4926298;29;20956;-77
2023/02/10 01:55:12;;;;;;;14.50;4.03;;;5.00;99.90;;;;;;4927483;29;20232;-78
2023/02/10 01:57:43;;;;;;;14.33;2.83;;;5.00;99.90;;;;;;4926095;29;20208;-80
2023/02/10 02:00:12;;;;;;;11.80;3.70;;;5.10;99.90;;;;;;4925717;29;20781;-80
2023/02/10 02:02:40;;;;;;;9.43;3.07;;;5.10;99.90;;;;;;4933138;29;21068;-77
2023/02/10 02:05:22;;;;;;;12.10;3.30;;;5.10;99.90;;;;;;4945691;29;20296;-80
2023/02/10 02:07:51;;;;;;;16.03;4.03;;;5.00;99.90;;;;;;4944599;29;20353;-81
2023/02/10 02:10:18;;;;;;;15.90;3.40;;;5.10;99.90;;;;;;4943558;29;20626;-79
2023/02/10 02:12:53;;;;;;;12.93;3.27;;;5.10;99.90;;;;;;4924317;29;20225;-79
2023/02/10 02:15:27;;;;;;;13.53;3.67;;;5.20;99.90;;;;;;4926366;29;20634;-79
2023/02/10 02:18:01;;;;;;;17.23;4.40;;;5.10;99.90;;;;;;4925784;29;20485;-80
2023/02/10 02:20:59;;;;;;;10.23;3.13;;;5.20;99.90;;;;;;4924277;28;20211;-80
2023/02/10 02:24:11;;;;;;;13.53;4.13;;;5.20;99.90;;;;;;4925983;29;20237;-80
2023/02/10 02:26:52;;;;;;;15.10;3.23;;;5.20;99.90;;;;;;4918707;29;20581;-80
2023/02/10 02:29:49;;;;;;;14.33;3.23;;;5.20;99.90;;;;;;4925436;29;20886;-77
2023/02/10 02:32:20;;;;;;;18.43;3.50;;;5.20;99.90;;;;;;4924447;29;20222;-79
2023/02/10 02:34:51;;;;;;;15.03;3.70;;;5.30;99.90;;;;;;4924848;29;20308;-78
2023/02/10 02:37:22;;;;;;;19.03;4.47;;;5.20;99.90;;;;;;4925990;29;20623;-78
2023/02/10 02:39:51;;;;;;;14.67;3.47;;;5.30;99.90;;;;;;4924882;29;20886;-79
2023/02/10 02:42:21;;;;;;;16.23;3.73;;;5.30;99.90;;;;;;4924734;29;20210;-78
2023/02/10 02:44:52;;;;;;;18.40;4.50;;;5.30;99.90;;;;;;4925616;29;20302;-79
2023/02/10 02:47:36;;;;;;;18.27;4.30;;;5.30;99.90;;;;;;4925744;29;20304;-80
2023/02/10 02:50:15;;;;;;;13.73;3.77;;;5.20;99.90;;;;;;4925341;29;20190;-79
2023/02/10 02:52:52;;;;;;;16.37;5.40;;;5.20;99.90;;;;;;4925601;29;20622;-78
2023/02/10 02:55:26;;;;;;;20.07;4.53;;;5.20;99.90;;;;;;4942172;29;20209;-78
2023/02/10 02:57:57;;;;;;;16.63;4.10;;;5.20;99.90;;;;;;4945084;29;20212;-80
2023/02/10 03:00:28;;;;;;;15.60;4.20;;;5.20;99.90;;;;;;4944880;28;20205;-79
2023/02/10 03:02:57;;;;;;;12.53;5.20;;;5.30;99.90;;;;;;4927432;29;20303;-81
2023/02/10 03:05:28;;;;;;;11.20;3.67;;;5.20;99.90;;;;;;4925866;29;20289;-79
2023/02/10 03:07:55;;;;;;;15.13;3.80;;;5.30;99.90;;;;;;4926316;29;20572;-80
2023/02/10 03:10:23;;;;;;;15.43;4.00;;;5.20;99.90;;;;;;4925758;29;20202;-79
2023/02/10 03:12:50;;;;;;;16.77;4.37;;;5.20;99.90;;;;;;4925832;29;20234;-79
2023/02/10 03:15:17;;;;;;;15.50;4.23;;;5.20;99.90;;;;;;4926088;29;20222;-80
2023/02/10 03:17:44;;;;;;;14.70;4.03;;;5.20;99.90;;;;;;4925410;29;20208;-80
2023/02/10 03:20:13;;;;;;;14.63;3.53;;;5.20;99.90;;;;;;4925957;29;20201;-79
2023/02/10 03:22:41;;;;;;;14.73;3.23;;;5.20;99.90;;;;;;4925592;29;20691;-81
2023/02/10 03:25:08;;;;;;;12.77;3.77;;;5.20;99.90;;;;;;4925437;29;20317;-79
2023/02/10 03:27:35;;;;;;;16.33;4.60;;;5.20;99.90;;;;;;4925810;29;20220;-80
2023/02/10 03:30:02;;;;;;;16.67;3.17;;;5.20;99.90;;;;;;4926104;29;20198;-79
2023/02/10 03:32:29;;;;;;;17.20;3.57;;;5.20;99.90;;;;;;4927415;29;20229;-79
2023/02/10 03:34:56;;;;;;;17.13;4.13;;;5.20;99.90;;;;;;4929318;29;20773;-79
2023/02/10 03:37:24;;;;;;;14.37;3.53;;;5.20;99.90;;;;;;4928539;29;21043;-79
2023/02/10 03:39:51;;;;;;;14.03;3.70;;;5.20;99.90;;;;;;4928642;29;20214;-79
2023/02/10 03:42:18;;;;;;;16.00;4.07;;;5.20;99.90;;;;;;4928745;29;20205;-81
2023/02/10 03:44:45;;;;;;;15.40;3.60;;;5.20;99.90;;;;;;4928441;29;20214;-79
2023/02/10 03:47:11;;;;;;;11.27;3.43;;;5.10;99.90;;;;;;4928839;29;20220;-80
2023/02/10 03:49:38;;;;;;;17.27;3.90;;;5.10;99.90;;;;;;4928126;29;20224;-80
2023/02/10 03:52:05;;;;;;;21.20;3.93;;;5.10;99.90;;;;;;4926870;29;20672;-80
2023/02/10 03:54:33;;;;;;;16.00;3.87;;;5.20;99.90;;;;;;4927158;29;20819;-80
2023/02/10 03:57:00;;;;;;;9.97;3.63;;;5.10;99.90;;;;;;4928223;29;20240;-80
2023/02/10 03:59:27;;;;;;;13.93;3.80;;;5.10;99.90;;;;;;4927556;29;20535;-79
2023/02/10 04:01:54;;;;;;;17.50;4.17;;;5.10;99.90;;;;;;4927215;29;20217;-79
2023/02/10 04:04:21;;;;;;;16.13;4.47;;;5.00;99.90;;;;;;4928125;29;20249;-78
2023/02/10 04:06:48;;;;;;;16.43;4.07;;;5.00;99.90;;;;;;4927122;29;20235;-77
2023/02/10 04:09:15;;;;;;;14.77;3.80;;;5.20;99.90;;;;;;4927741;29;20209;-78
2023/02/10 04:11:43;;;;;;;17.90;4.03;;;5.10;99.90;;;;;;4926995;29;20300;-79
2023/02/10 04:14:10;;;;;;;12.20;3.63;;;5.10;99.90;;;;;;4926353;29;20214;-78
2023/02/10 04:16:37;;;;;;;17.97;4.30;;;5.00;99.90;;;;;;4926907;29;20210;-77
2023/02/10 04:19:04;;;;;;;11.07;4.30;;;5.00;99.90;;;;;;4927840;29;20595;-77
2023/02/10 04:21:31;;;;;;;12.10;3.57;;;5.00;99.90;;;;;;4927603;29;20220;-78
2023/02/10 04:23:58;;;;;;;23.23;4.87;;;5.00;99.90;;;;;;4928016;29;20224;-78
2023/02/10 04:26:25;;;;;;;19.60;4.20;;;5.00;99.90;;;;;;4927028;29;20206;-79
2023/02/10 04:28:53;;;;;;;11.57;4.13;;;5.00;99.90;;;;;;4927283;29;20705;-77
2023/02/10 04:31:20;;;;;;;16.83;4.50;;;5.00;99.90;;;;;;4927828;29;20210;-79
2023/02/10 04:33:47;;;;;;;12.63;3.37;;;5.00;99.90;;;;;;4927181;29;20244;-78
2023/02/10 04:36:14;;;;;;;12.47;3.83;;;5.00;99.90;;;;;;4927644;29;20593;-79
2023/02/10 04:38:41;;;;;;;19.63;4.23;;;5.00;99.90;;;;;;4926963;29;20221;-78
2023/02/10 04:41:08;;;;;;;14.67;3.97;;;5.00;99.90;;;;;;4927127;29;20212;-77
2023/02/10 04:43:35;;;;;;;16.40;4.27;;;5.00;99.90;;;;;;4925016;29;20250;-77
2023/02/10 04:46:03;;;;;;;14.37;4.60;;;5.00;99.90;;;;;;4925944;29;20289;-77
2023/02/10 04:48:31;;;;;;;12.03;3.70;;;5.00;99.90;;;;;;4925291;29;20221;-78
2023/02/10 04:50:58;;;;;;;20.50;4.57;;;5.00;99.90;;;;;;4926018;29;20322;-79
2023/02/10 04:53:25;;;;;;;13.67;3.87;;;5.00;99.90;;;;;;4926506;29;20226;-77
2023/02/10 04:55:52;;;;;;;11.67;3.70;;;5.00;99.90;;;;;;4924931;29;20587;-80
2023/02/10 04:58:19;;;;;;;13.27;3.50;;;4.90;99.90;;;;;;4926407;29;20647;-78
2023/02/10 05:00:46;;;;;;;10.80;3.80;;;4.90;99.90;;;;;;4926603;29;20201;-79
2023/02/10 05:03:14;;;;;;;10.23;3.67;;;4.80;99.90;;;;;;4926000;29;20799;-77
2023/02/10 05:05:41;;;;;;;14.50;4.27;;;4.70;99.90;;;;;;4926323;29;20205;-77
2023/02/10 05:08:08;;;;;;;13.27;4.50;;;4.60;99.90;;;;;;4926217;29;20210;-78
2023/02/10 05:10:35;;;;;;;14.17;4.43;;;4.50;99.90;;;;;;4925335;29;20671;-77
2023/02/10 05:13:01;;;;;;;11.90;4.10;;;4.40;99.90;;;;;;4926305;29;20236;-79
2023/02/10 05:15:28;;;;;;;7.20;3.13;;;4.30;99.90;;;;;;4925888;29;20257;-77
2023/02/10 05:17:55;;;;;;;18.87;5.47;;;4.20;99.90;;;;;;4925528;29;20929;-78
2023/02/10 05:20:24;;;;;;;18.40;5.10;;;4.30;99.90;;;;;;4925895;29;20281;-77
2023/02/10 05:22:50;;;;;;;15.80;4.43;;;4.40;99.90;;;;;;4924732;29;20216;-78
2023/02/10 05:25:17;;;;;;;16.80;6.50;;;4.40;99.90;;;;;;4925414;29;20509;-78
2023/02/10 05:27:44;;;;;;;16.03;5.30;;;4.30;99.90;;;;;;4925751;29;20289;-78
2023/02/10 05:30:13;;;;;;;11.97;3.57;;;4.20;99.90;;;;;;4924301;29;20202;-79
2023/02/10 05:32:40;;;;;;;14.37;4.13;;;4.10;99.90;;;;;;4943802;29;20256;-78
2023/02/10 05:35:08;;;;;;;13.47;4.50;;;4.10;99.90;;;;;;4944394;29;20273;-81
2023/02/10 05:37:36;;;;;;;13.90;3.87;;;4.00;99.90;;;;;;4943395;28;20213;-79
2023/02/10 05:40:05;;;;;;;15.93;4.90;;;3.90;99.90;;;;;;4944466;28;20297;-79
2023/02/10 05:42:32;;;;;;;18.03;4.30;;;3.90;99.90;;;;;;4893710;29;1121396;-77
2023/02/10 05:44:58;;;;;;;23.90;5.30;;;3.90;99.90;;;;;;4925687;29;20209;-78
2023/02/10 05:47:25;;;;;;;17.67;5.07;;;3.90;99.90;;;;;;4926279;29;20301;-79
2023/02/10 05:49:52;;;;;;;11.53;4.43;;;3.90;99.90;;;;;;4925760;29;20206;-79
2023/02/10 05:52:19;;;;;;;11.93;3.63;;;3.90;99.90;;;;;;4924719;29;20572;-79
2023/02/10 05:54:47;;;;;;;13.03;3.50;;;3.80;99.90;;;;;;4925731;29;20206;-79
2023/02/10 05:57:14;;;;;;;16.47;5.23;;;3.70;99.90;;;;;;4925703;29;20242;-79
2023/02/10 05:59:41;;;;;;;21.30;6.33;;;3.70;99.90;;;;;;4925043;29;20217;-80
2023/02/10 06:02:08;;;;;;;17.60;4.93;;;3.70;99.90;;;;;;4925860;29;20212;-80
2023/02/10 06:04:35;;;;;;;27.17;5.00;;;3.80;99.90;;;;;;4925820;29;20688;-80
2023/02/10 06:07:02;;;;;;;21.93;5.17;;;3.80;99.90;;;;;;4925189;29;20682;-79
2023/02/10 06:09:29;;;;;;;22.83;5.70;;;3.80;99.90;;;;;;4925773;29;20213;-80
2023/02/10 06:11:57;;;;;;;13.17;4.00;;;3.80;99.90;;;;;;4925422;29;20202;-80
2023/02/10 06:14:24;;;;;;;14.97;4.50;;;3.80;99.90;;;;;;4938213;28;20656;-80
2023/02/10 06:16:51;;;;;;;14.37;4.50;;;3.70;99.90;;;;;;4925902;29;20214;-80
2023/02/10 06:19:18;;;;;;;15.37;5.33;;;3.60;99.90;;;;;;4925333;29;20206;-80
2023/02/10 06:21:45;;;;;;;17.90;5.00;;;3.60;99.90;;;;;;4925875;29;20637;-80
2023/02/10 06:24:12;;;;;;;26.00;6.63;;;3.60;99.90;;;;;;4926609;29;20216;-80
2023/02/10 06:26:39;;;;;;;16.40;5.40;;;3.60;99.90;;;;;;4926114;29;20293;-80
2023/02/10 06:29:07;;;;;;;20.77;5.80;;;3.70;99.90;;;;;;4926475;29;20719;-80
2023/02/10 06:31:34;;;;;;;17.10;5.47;;;3.70;99.90;;;;;;4926227;29;20328;-80
2023/02/10 06:34:01;;;;;;;19.50;5.20;;;3.70;99.90;;;;;;4926030;29;20240;-80
2023/02/10 06:36:28;;;;;;;17.93;4.40;;;3.70;99.90;;;;;;4926337;29;20769;-81
2023/02/10 06:38:55;;;;;;;14.63;5.17;;;3.70;99.90;;;;;;4926675;29;20291;-79
2023/02/10 06:41:22;;;;;;;12.90;4.37;;;3.70;99.90;;;;;;4925885;29;20301;-80
2023/02/10 06:43:48;;;;;;;17.63;5.03;;;3.70;99.90;;;;;;4926941;29;20241;-79
2023/02/10 06:46:17;;;;;;;14.57;5.83;;;3.70;99.90;;;;;;4926160;29;20216;-80
2023/02/10 06:48:44;;;;;;;18.37;4.73;;;3.70;99.90;;;;;;4925490;29;20213;-79
2023/02/10 06:51:10;;;;;;;12.57;4.13;;;3.70;99.90;;;;;;4926913;29;20407;-80
2023/02/10 06:53:37;;;;;;;15.60;4.50;;;3.70;99.90;;;;;;4926048;29;20229;-82
2023/02/10 06:56:05;;;;;;;11.60;4.00;;;3.70;99.90;;;;;;4925661;29;20217;-80
2023/02/10 06:58:32;;;;;;;27.10;7.33;;;3.70;99.90;;;;;;4926337;29;20240;-80
2023/02/10 07:01:00;;;;;;;21.57;5.40;;;3.80;99.90;;;;;;4926793;29;20208;-80
2023/02/10 07:03:29;;;;;;;20.70;6.37;;;3.80;99.90;;;;;;4926747;29;20205;-80
2023/02/10 07:05:56;;;;;;;18.47;5.13;;;3.90;99.90;;;;;;4944126;28;20212;-77
2023/02/10 07:08:23;;;;;;;18.27;5.93;;;3.90;99.90;;;;;;4947860;29;20307;-78
2023/02/10 07:10:50;;;;;;;23.17;6.83;;;3.90;99.90;;;;;;4947790;29;20216;-78
2023/02/10 07:13:17;;;;;;;15.73;4.67;;;3.90;99.90;;;;;;4935786;29;20229;-78
2023/02/10 07:15:44;;;;;;;13.47;5.20;;;3.80;99.90;;;;;;4928266;29;20649;-78
2023/02/10 07:18:11;;;;;;;21.27;7.33;;;3.80;99.90;;;;;;4928880;29;20423;-80
2023/02/10 07:20:39;;;;;;;11.63;5.00;;;3.80;99.90;;;;;;4929008;29;20884;-78
2023/02/10 07:23:06;;;;;;;17.93;6.10;;;3.80;99.90;;;;;;4928307;29;20229;-81
2023/02/10 07:25:33;;;;;;;23.47;5.90;;;3.90;99.90;;;;;;4928886;29;20990;-79
2023/02/10 07:28:00;;;;;;;25.47;7.43;;;3.90;99.90;;;;;;4928810;29;20855;-79
2023/02/10 07:30:27;;;;;;;27.70;7.07;;;3.90;99.90;;;;;;4928154;29;20218;-79
2023/02/10 07:32:54;;;;;;;19.33;5.50;;;4.00;99.90;;;;;;4929402;29;20623;-80
2023/02/10 07:35:21;;;;;;;29.67;6.60;;;4.00;99.90;;;;;;4928548;29;20582;-79
2023/02/10 07:37:49;;;;;;;19.40;6.07;;;4.00;99.90;;;;;;4928328;29;20206;-79
2023/02/10 07:40:16;;;;;;;19.23;5.97;;;4.00;99.90;;;;;;4934438;29;20209;-79
2023/02/10 07:42:43;;;;;;;17.00;5.70;;;4.00;99.90;;;;;;4948179;29;20340;-80
2023/02/10 07:45:10;;;;;;;14.20;5.23;;;4.00;99.90;;;;;;4948848;28;20216;-80
2023/02/10 07:47:37;;;;;;;21.07;6.27;;;4.00;99.90;;;;;;4931238;29;20226;-78
2023/02/10 07:50:04;;;;;;;24.57;6.50;;;3.90;99.90;;;;;;4929273;29;20606;-81
2023/02/10 07:52:31;;;;;;;14.90;5.23;;;3.90;99.90;;;;;;4931732;29;20209;-80
2023/02/10 07:55:02;;;;;;;11.80;5.30;;;3.90;99.90;;;;;;4947876;28;20776;-80
2023/02/10 07:57:29;;;;;;;23.43;5.90;;;3.90;99.90;;;;;;4944011;28;20201;-80
2023/02/10 07:59:56;;;;;;;22.60;7.20;;;3.90;99.90;;;;;;4947252;29;20201;-80
2023/02/10 08:02:23;;;;;;;28.77;6.87;;;4.00;99.90;;;;;;4947201;28;20272;-79
2023/02/10 08:04:52;;;;;;;25.60;6.93;;;4.00;99.90;;;;;;4930162;29;20286;-80
2023/02/10 08:07:19;;;;;;;28.80;7.80;;;4.10;99.90;;;;;;4928288;29;20202;-80
2023/02/10 08:09:45;;;;;;;17.70;6.60;;;4.10;99.90;;;;;;4928003;29;20303;-79
2023/02/10 08:12:14;;;;;;;23.30;6.67;;;4.10;99.90;;;;;;4928109;29;20513;-80
2023/02/10 08:14:41;;;;;;;15.37;5.50;;;4.20;99.90;;;;;;4928402;29;20265;-81
2023/02/10 08:17:07;;;;;;;16.83;6.07;;;4.20;99.90;;;;;;4928133;29;20206;-80
2023/02/10 08:19:36;;;;;;;23.63;5.93;;;4.20;99.90;;;;;;4927352;29;20338;-81
2023/02/10 08:26:05;;;;;;;19.03;6.30;;;4.40;99.90;;;;;;4775897;29;20238;-83
2023/02/10 08:28:35;;;;;;;16.53;5.80;;;4.50;99.90;;;;;;4937345;28;20816;-81
2023/02/10 08:31:03;;;;;;;25.80;5.57;;;4.50;99.90;;;;;;4943725;29;20216;-81
2023/02/10 08:33:30;;;;;;;20.13;5.17;;;4.60;99.90;;;;;;4947928;29;20618;-82
2023/02/10 08:35:57;;;;;;;26.93;6.40;;;4.60;99.90;;;;;;4941530;29;20292;-81
2023/02/10 08:38:24;;;;;;;18.13;6.47;;;4.70;99.90;;;;;;4942156;29;20308;-80
2023/02/10 08:40:56;;;;;;;24.20;7.87;;;4.80;99.90;;;;;;4939450;29;20209;-80
2023/02/10 08:43:23;;;;;;;15.97;5.97;;;4.90;99.90;;;;;;4946523;28;20249;-79
2023/02/10 08:45:51;;;;;;;17.90;5.30;;;4.90;99.90;;;;;;4946819;29;20297;-79
2023/02/10 08:48:19;;;;;;;27.07;6.80;;;4.90;99.90;;;;;;4946326;29;20231;-81
2023/02/10 08:50:45;;;;;;;21.07;6.23;;;5.00;99.90;;;;;;4946647;29;20628;-79
2023/02/10 08:53:12;;;;;;;18.80;6.40;;;5.00;99.90;;;;;;4935360;29;20240;-80
2023/02/10 08:55:39;;;;;;;23.20;6.87;;;5.10;99.90;;;;;;4927060;29;20210;-80
2023/02/10 08:58:07;;;;;;;20.20;7.23;;;5.20;99.90;;;;;;4933541;29;20224;-80
2023/02/10 09:00:35;;;;;;;24.60;6.47;;;5.30;99.90;;;;;;4927629;29;20638;-80
2023/02/10 09:03:04;;;;;;;18.63;5.80;;;5.40;99.90;;;;;;4927465;29;20249;-80
2023/02/10 09:05:31;;;;;;;21.07;6.53;;;5.40;99.90;;;;;;4941770;29;20209;-80
2023/02/10 09:07:57;;;;;;;20.97;7.53;;;5.50;99.90;;;;;;4946330;29;20208;-79
2023/02/10 09:10:24;;;;;;;22.77;6.37;;;5.50;99.90;;;;;;4946624;29;20301;-79
2023/02/10 09:12:51;;;;;;;16.20;4.80;;;5.60;99.90;;;;;;4927144;28;20301;-79
2023/02/10 09:15:19;;;;;;;16.20;3.87;;;5.70;99.90;;;;;;4935985;29;20225;-80
2023/02/10 09:17:45;;;;;;;23.17;5.57;;;5.80;99.90;;;;;;4928838;29;20214;-80
2023/02/10 09:20:14;;;;;;;16.60;4.27;;;5.80;99.90;;;;;;4927065;29;20204;-79
2023/02/10 09:22:41;;;;;;;19.60;4.23;;;5.90;99.90;;;;;;4926914;29;20220;-80
2023/02/10 09:25:08;;;;;;;16.33;4.13;;;5.90;99.90;;;;;;4927486;29;20210;-78
2023/02/10 09:27:35;;;;;;;14.97;3.60;;;5.90;99.90;;;;;;4926873;29;20897;-80
2023/02/10 09:30:02;;;;;;;19.40;3.77;;;6.00;99.90;;;;;;4931282;29;20201;-80
2023/02/10 09:32:30;;;;;;;21.07;6.40;;;6.00;99.90;;;;;;4946867;28;20897;-82
2023/02/10 09:34:56;;;;;;;21.57;4.70;;;6.10;99.90;;;;;;4951451;28;20545;-81
2023/02/10 09:37:25;;;;;;;19.13;4.30;;;6.10;99.90;;;;;;4946645;28;20327;-83
2023/02/10 09:39:52;;;;;;;11.80;3.93;;;6.10;99.90;;;;;;4948804;28;20693;-82
2023/02/10 09:42:27;;;;;;;17.87;4.03;;;6.10;99.90;;;;;;4946015;28;20300;-81
2023/02/10 09:45:00;;;;;;;18.13;4.43;;;6.20;99.90;;;;;;4947277;29;20292;-81
2023/02/10 09:47:39;;;;;;;15.47;4.23;;;6.30;99.90;;;;;;4934137;28;20205;-80
2023/02/10 09:50:35;;;;;;;15.47;3.50;;;6.30;99.90;;;;;;4949805;28;20230;-82
2023/02/10 09:53:12;;;;;;;15.17;3.83;;;6.40;99.90;;;;;;4944316;28;20332;-80
2023/02/10 09:55:42;;;;;;;19.07;3.33;;;6.50;99.90;;;;;;4945477;28;20215;-82
2023/02/10 09:58:18;;;;;;;20.13;4.67;;;6.60;99.90;;;;;;4947079;28;20297;-80
2023/02/10 10:00:47;;;;;;;26.77;5.10;;;6.60;99.90;;;;;;4946382;29;20193;-80
2023/02/10 10:03:18;;;;;;;17.07;4.33;;;6.70;99.90;;;;;;4942091;29;20210;-82
2023/02/10 10:05:55;;;;;;;12.17;4.00;;;6.80;99.90;;;;;;4936171;28;20209;-84
2023/02/10 10:08:30;;;;;;;12.97;3.77;;;6.90;99.90;;;;;;4936196;29;20295;-81
2023/02/10 10:11:02;;;;;;;21.30;5.83;;;7.00;99.90;;;;;;4938928;28;20213;-77
2023/02/10 10:13:31;;;;;;;13.47;3.80;;;7.10;99.90;;;;;;4941633;28;20770;-78
2023/02/10 10:16:18;;;;;;;13.87;3.60;;;7.20;99.90;;;;;;4934998;29;20243;-78
2023/02/10 10:18:55;;;;;;;14.07;3.70;;;7.30;99.90;;;;;;4943743;29;20231;-78
2023/02/10 10:21:29;;;;;;;17.63;3.60;;;7.30;99.90;;;;;;4943906;29;20212;-78
2023/02/10 10:24:14;;;;;;;13.30;3.37;;;7.40;99.90;;;;;;4934582;29;20209;-78
2023/02/10 10:26:51;;;;;;;12.43;3.03;;;7.50;99.90;;;;;;4940240;29;20240;-78
2023/02/10 10:29:30;;;;;;;8.07;2.40;;;7.50;99.90;;;;;;4928984;29;20205;-79
2023/02/10 10:32:07;;;;;;;12.27;3.53;;;7.60;99.90;;;;;;4925250;29;20194;-79
2023/02/10 10:34:40;;;;;;;12.67;3.13;;;7.70;99.90;;;;;;4927276;29;20853;-78
2023/02/10 10:37:15;;;;;;;13.40;3.83;;;7.70;99.90;;;;;;4944397;29;20205;-78
2023/02/10 10:39:46;;;;;;;14.60;4.13;;;7.70;99.90;;;;;;4943847;29;20208;-80
2023/02/10 10:42:21;;;;;;;16.63;5.23;;;7.70;99.90;;;;;;4946834;28;20226;-80
2023/02/10 10:44:49;;;;;;;13.83;4.77;;;7.80;99.90;;;;;;4947691;29;20200;-78
2023/02/10 10:47:21;;;;;;;13.50;4.97;;;7.80;99.90;;;;;;4949326;29;20516;-80
2023/02/10 10:49:48;;;;;;;13.57;5.00;;;7.90;99.90;;;;;;4943703;29;20205;-77
2023/02/10 10:52:28;;;;;;;16.00;5.30;;;8.00;99.90;;;;;;4950610;29;20860;-83
2023/02/10 10:54:57;;;;;;;15.53;5.87;;;8.00;99.90;;;;;;4949921;29;20920;-79
2023/02/10 10:57:25;;;;;;;15.27;6.50;;;8.10;99.90;;;;;;4950403;29;20261;-79
2023/02/10 10:59:56;;;;;;;15.13;6.60;;;8.20;99.90;;;;;;4951386;29;20517;-82
2023/02/10 11:02:24;;;;;;;15.70;6.97;;;8.20;99.90;;;;;;4933240;29;20343;-83
2023/02/10 11:05:01;;;;;;;17.67;6.60;;;8.30;99.90;;;;;;4933681;29;20210;-82
2023/02/10 11:07:31;;;;;;;15.33;6.80;;;8.40;99.90;;;;;;4930540;29;20216;-80
2023/02/10 11:10:01;;;;;;;14.20;7.27;;;8.50;99.90;;;;;;4929995;29;20214;-81
2023/02/10 11:12:33;;;;;;;18.17;7.63;;;8.50;99.90;;;;;;4929095;29;20378;-80
2023/02/10 11:15:02;;;;;;;16.57;7.47;;;8.50;99.90;;;;;;4929459;29;20316;-81
2023/02/10 11:17:34;;;;;;;18.53;7.40;;;8.60;99.90;;;;;;4929533;29;20210;-79
2023/02/10 11:20:05;;;;;;;14.53;7.00;;;8.70;99.90;;;;;;4930796;29;20405;-79
2023/02/10 11:22:32;;;;;;;16.97;8.13;;;8.80;99.90;;;;;;4931863;29;20745;-79
2023/02/10 11:25:02;;;;;;;17.50;8.33;;;8.90;99.90;;;;;;4947805;29;20510;-80
2023/02/10 11:27:29;;;;;;;15.33;7.77;;;8.90;99.90;;;;;;4947855;28;20225;-81
2023/02/10 11:29:58;;;;;;;13.53;7.80;;;9.00;99.90;;;;;;4946465;28;20620;-79
2023/02/10 11:32:27;;;;;;;17.63;8.20;;;9.10;99.90;;;;;;4929673;29;20214;-80
2023/02/10 11:34:57;;;;;;;19.00;8.30;;;9.10;99.90;;;;;;4936333;29;20546;-80
2023/02/10 11:37:29;;;;;;;18.87;8.80;;;9.20;99.90;;;;;;4947839;28;20970;-80
2023/02/10 11:39:57;;;;;;;16.63;8.63;;;9.30;99.90;;;;;;4934778;29;20318;-79
2023/02/10 11:42:29;;;;;;;17.60;8.67;;;9.30;99.90;;;;;;4928003;29;20923;-80
2023/02/10 11:44:58;;;;;;;16.53;9.90;;;9.40;99.90;;;;;;4927694;29;20247;-79
2023/02/10 11:47:27;;;;;;;12.67;9.17;;;9.50;99.90;;;;;;4929368;29;20206;-79
2023/02/10 11:49:54;;;;;;;16.93;8.07;;;9.50;99.90;;;;;;4928049;29;20270;-78
2023/02/10 11:52:25;;;;;;;16.87;7.43;;;9.60;99.90;;;;;;4944896;28;20333;-79
2023/02/10 11:54:52;;;;;;;17.97;9.47;;;9.60;99.90;;;;;;4947210;28;20243;-81
2023/02/10 12:00:31;;;;;;;14.57;8.00;;;9.70;99.90;;;;;;4942000;29;20229;-81
2023/02/10 12:03:27;;;;;;;18.97;9.20;;;9.80;99.90;;;;;;4945035;29;20292;-81
2023/02/10 12:06:05;;;;;;;15.17;8.80;;;9.90;99.90;;;;;;4929841;29;20230;-81
2023/02/10 12:08:42;;;;;;;17.07;7.97;;;9.90;99.90;;;;;;4948339;29;20204;-81
2023/02/10 12:11:16;;;;;;;12.33;8.37;;;9.80;99.90;;;;;;4944040;29;20215;-80
2023/02/10 12:13:54;;;;;;;15.80;9.10;;;9.80;99.90;;;;;;4946103;29;20957;-81
2023/02/10 12:16:31;;;;;;;17.33;8.80;;;9.80;99.90;;;;;;4947935;28;20255;-81
2023/02/10 12:19:02;;;;;;;18.80;9.27;;;9.80;99.90;;;;;;4947407;29;20736;-81
2023/02/10 12:21:49;;;;;;;18.87;9.37;;;9.70;99.90;;;;;;4946527;29;20284;-82
2023/02/10 12:24:43;;;;;;;18.90;9.30;;;9.80;99.90;;;;;;4940514;29;20199;-81
2023/02/10 12:27:17;;;;;;;17.23;9.87;;;9.90;99.90;;;;;;4936616;29;20205;-81
2023/02/10 12:29:57;;;;;;;17.90;10.53;;;10.00;99.90;;;;;;4946223;28;20906;-81
2023/02/10 12:32:37;;;;;;;19.53;11.17;;;10.10;99.90;;;;;;4942009;29;20640;-79
2023/02/10 12:35:32;;;;;;;14.93;9.37;;;10.20;99.90;;;;;;4946679;29;20228;-81
2023/02/10 12:38:14;;;;;;;21.77;11.73;;;10.30;99.90;;;;;;4939126;29;20316;-82
2023/02/10 12:40:51;;;;;;;18.43;10.73;;;10.20;99.90;;;;;;4943787;29;20676;-78
2023/02/10 12:43:36;;;;;;;20.37;11.10;;;10.10;99.90;;;;;;4946717;29;20336;-79
2023/02/10 12:46:15;;;;;;;19.80;11.43;;;10.00;99.90;;;;;;4942823;28;20201;-80
2023/02/10 12:49:02;;;;;;;21.20;12.57;;;9.90;99.90;;;;;;4939651;28;20757;-80
2023/02/10 12:51:43;;;;;;;21.03;13.33;;;9.80;99.90;;;;;;4942842;28;20283;-79
2023/02/10 12:54:14;;;;;;;24.67;13.37;;;9.90;99.90;;;;;;4931044;28;20205;-79
2023/02/10 12:56:46;;;;;;;24.43;14.47;;;9.90;99.90;;;;;;4935025;28;20220;-77
2023/02/10 12:59:18;;;;;;;20.67;13.40;;;9.90;99.90;;;;;;4946055;28;20206;-79
2023/02/10 13:01:52;;;;;;;25.23;15.00;;;9.80;99.90;;;;;;4944240;28;20308;-79
2023/02/10 13:04:25;;;;;;;26.90;14.60;;;9.80;99.90;;;;;;4944718;28;20209;-78
2023/02/10 13:06:57;;;;;;;25.67;14.73;;;9.80;99.90;;;;;;4936678;28;20618;-78
2023/02/10 13:09:31;;;;;;;29.17;14.87;;;9.80;99.90;;;;;;4939949;28;20207;-79